Tobias, Nebraska
Current Conditions -  °F | °C
As of 9:35 AM on Thursday 30 Oct 2014 (Local Time) from KHJH Reporting Station
Clear Clear  
Wind Chill: 10°   Ceiling: Unl
Heat Index: 10°   Visibility: 10mi
Dew Point:   Wind: 7mph
Humidity: 57%   Direction: 310°NW
Pressure: 30.13"   Gusts: NA
Location:  40.42°N, 97.34°W
Report Text: KHJH 301435Z AUTO 31006KT 10SM CLR 10/02 A3013 RMK AO2 T01040021
Loading
Personal Weather Stations






























Interactive Weather Map
Tropical Storm Tracking
New forecast layout! Learn more

10-Day Weather Forecast

Advertisements
Track Severe Weather on mobile